Terminal Aerodrome Forecast
Issued by NWS

Home | Current Version | Previous Version | Text Only | Print | Product List | Glossary On
Versions: 1 2 3 4 5 6 7 8 9 10 11 12 13 14 15
000
FTUS44 KTSA 030500
TAFXNA
TAF
KXNA 030525Z 0306/0406 20004KT P6SM OVC013
     FM030800 18009KT 3SM BR OVC007
     FM031400 21011KT P6SM OVC004
     FM032000 22009G19KT P6SM OVC015 PROB30 0320/0402 2SM -RA BR
      OVC007
     FM040200 33009KT P6SM VCSH OVC015
      TEMPO 0402/0406 2SM -RA BR OVC007=

USA.gov is the U.S. government's official web portal to all federal, state and local government web resources and services.